Aktuální počasí v Česku a ve světě - METAR

Seznam meteostanic umístěných nejčasteji na letišti v ČR a ve světě

Vyhledat místa podle abecedy:
A B C D E F G H I J K L M N O P Q R S T U V W X Y Z

Filtrovat:

ID stanice:
a/nebo
Název místa (fulltext):
 
Místo (ID)Naposledy načteno 
Milešovka (Milesovka) 15.04.2021 14:00 UTC Zobrazit data
Místo: Milešovka
Teplota: 0 °C (pocitová: -10.4 °C)
Vítr: 7 m/s z(e) 330°
Počasí: sněží
Dohlednost: 3000 m
Zákl. oblačnosti: 8/8 180 m
Vlhkost: 100%
Mošnov (Ostrava/Mo) 15.04.2021 14:00 UTC Zobrazit data
Místo: Mošnov
Teplota: 3 °C (pocitová: -3.3 °C)
Vítr: 3 m/s z(e) 310°
Počasí: déšť
Dohlednost: 10 km
Zákl. oblačnosti: 3/8 300 m;8/8 1200 m
Vlhkost: 87%
Macau (VMMC) 15.04.2021 14:00 UTC Zobrazit METAR
VMMC 151400Z 09011KT 9999 FEW009 SCT025 23/22 Q1013 NOSIG
Madeira (LPMA) 15.04.2021 14:00 UTC Zobrazit METAR
LPMA 151400Z 35010KT 320V030 9999 SCT015 19/14 Q1017
Madrid (LETO) 15.04.2021 14:00 UTC Zobrazit METAR
LETO 151400Z 15004KT 130V190 9999 SCT035 BKN055 15/07 Q1015 NOSIG
Majuro Atoll (PKMA) Zatím nenačteno  
Malabo (FGSL) 15.04.2021 14:00 UTC Zobrazit METAR
FGSL 151400Z 28007KT 240V310 9999 SCT010 32/26 Q1008 NOSIG
Malaga (LEMG) 15.04.2021 14:00 UTC Zobrazit METAR
LEMG 151400Z 14006KT 100V170 9999 -DZ SCT011 BKN016 15/14 Q1014 NOSIG
Male (VRMM) 15.04.2021 14:00 UTC Zobrazit METAR
VRMM 151400Z 26007KT 9999 FEW019 SCT280 29/24 Q1009 NOSIG
Malmo (ESMS) 15.04.2021 13:50 UTC Zobrazit METAR
ESMS 151350Z 02008KT CAVOK 10/M06 Q1028
Malta (LMML) 15.04.2021 13:45 UTC Zobrazit METAR
LMML 151345Z 12013KT 090V150 9999 BKN017 16/13 Q1017 NOSIG
Managua (MNMG) 15.04.2021 14:00 UTC Zobrazit METAR
MNMG 151400Z 09006KT 9999 FEW020 SCT300 28/21 Q1011 A2986 NOSIG
Manchester (EGCC) 15.04.2021 11:50 UTC Zobrazit METAR
EGCC 151150Z AUTO VRB04KT 9999 FEW045 10/M01 Q1034 NOSIG
Manila (RPLL) 15.04.2021 14:00 UTC Zobrazit METAR
RPLL 151400Z 12005KT 090V150 9999 FEW025 28/23 Q1011 NOSIG RMK A2985
Manzini (FDMS) 14.04.2021 10:00 UTC Zobrazit METAR
FDMS 141000Z 02007KT CAVOK 28/18 Q1019 NOSIG
Maputo (FQMA) 15.04.2021 14:00 UTC Zobrazit METAR
FQMA 151400Z 09009KT 9999 SCT020 29/22 Q1013 NOSIG
Maribor (LJMB) 15.04.2021 14:00 UTC Zobrazit METAR
LJMB 151400Z 32004KT 250V010 9999 SCT047 BKN076 09/M05 Q1021
Marrakech (GMMX) 15.04.2021 10:00 UTC Zobrazit METAR
GMMX 151000Z VRB02KT 9999 SCT026 21/13 Q1013 NOSIG
Maseru (FXMM) 15.04.2021 10:00 UTC Zobrazit METAR
FXMM 151000Z 21006KT 9999 FEW035 SCT080 23/08 Q1024 NOSIG
Mauritius (FIMP) 15.04.2021 14:00 UTC Zobrazit METAR
FIMP 151400Z 33003KT 9999 -SHRA SCT015 BKN050 26/24 Q1014
Melilla (GEML) 15.04.2021 14:00 UTC Zobrazit METAR
GEML 151400Z 01009G19KT 330V060 8000 -RA BKN007 OVC009 14/13 Q1013
Mexico City (MMMX) 15.04.2021 12:48 UTC Zobrazit METAR
MMMX 151248Z 00000KT 7SM BKN220 13/06 A3032 NOSIG RMK 8/002 HZY AC
Midway Atoll, Sand Island (PMDY) 15.04.2021 13:56 UTC Zobrazit METAR
PMDY 151356Z AUTO 09019KT 10SM SCT018 BKN024 BKN031 21/19 A3031 RMK AO2 RAE10 SLP264 P0000 T02110189
Milan (LIMC) 15.04.2021 13:50 UTC Zobrazit METAR
LIMC 151350Z VRB04KT 9999 BKN040 10/01 Q1021 NOSIG
Minsk (UMMM) 11.07.2016 14:00 UTC Zobrazit METAR
UMMM 111400Z ///// //// BKN040 BKN200 28/16 Q1009 NOSIG RMK QFE738
Mitilini (LGMT) 15.04.2021 13:50 UTC Zobrazit METAR
LGMT 151350Z 22006KT 9999 SCT025 19/12 Q1015
Mogadishu (HCMM) 15.04.2021 14:00 UTC Zobrazit METAR
HCMM 151400Z 16009KT 9999 FEW023 30/22 Q1007
Monrovia (GLRB) 15.04.2021 14:30 UTC Zobrazit METAR
GLRB 151430Z 21012KT 9999 BKN020 34/26 Q1008 NOSIG
Montevideo (SUMU) 15.04.2021 14:00 UTC Zobrazit METAR
SUMU 151400Z 36007KT CAVOK 23/17 Q1015 NOSIG
Montpellier/ Mediterranee (LFMT) 15.04.2021 14:00 UTC Zobrazit METAR
LFMT 151400Z AUTO 04011G23KT 340V100 CAVOK 17/M07 Q1018 TEMPO 19010KT
Moscow (UUEE) Zatím nenačteno  
Mostar (LQMO) 15.04.2021 14:00 UTC Zobrazit METAR
LQMO 151400Z 35009KT 300V090 9999 FEW050 14/M06 Q1017
Mount Pleasant (EGYP) 15.04.2021 13:50 UTC Zobrazit METAR
EGYP 151350Z 31016KT 9999 FEW016 SCT160 11/04 Q1002 NOSIG
Munich (EDDM) 15.04.2021 08:50 UTC Zobrazit METAR
EDDM 150850Z VRB04KT 9999 FEW027 05/M03 Q1025 NOSIG
Muscat (OOMS) 15.04.2021 13:50 UTC Zobrazit METAR
OOMS 151350Z 05004KT CAVOK 34/19 Q1006 NOSIG
Reklama

Reklama


💌 Počasí na Váš email

Emaily jsou bez reklamy a bez spamu



Odhlásit newsletter



Další české internetové stránky (nejen) o počasí najdete v katalogu TOPlist - weby o počasí nebo vyhledejte na internetu, co jste tu na 🌞 Slunečnu ⛅ zatím nenašli:
⭐ Přidat Slunečno.cz do oblíbených | 🏠 Nastavit Slunečno.cz jako HOMEPAGE

⬆️ Posunout stránku nahoru ⬆️
Reklama